sensor_id;sensor_type;location;lat;lon;timestamp;P1;durP1;ratioP1;P2;durP2;ratioP2
69789;SDS011;57064;52.046;4.800;2023-06-24T00:00:09;2.25;;;1.50;;
69789;SDS011;57064;52.046;4.800;2023-06-24T00:02:37;2.72;;;1.15;;
69789;SDS011;57064;52.046;4.800;2023-06-24T00:05:04;2.95;;;1.40;;
69789;SDS011;57064;52.046;4.800;2023-06-24T00:07:31;3.25;;;1.58;;
69789;SDS011;57064;52.046;4.800;2023-06-24T00:10:02;2.85;;;1.40;;
69789;SDS011;57064;52.046;4.800;2023-06-24T00:12:29;3.17;;;1.42;;
69789;SDS011;57064;52.046;4.800;2023-06-24T00:14:55;2.78;;;1.40;;
69789;SDS011;57064;52.046;4.800;2023-06-24T00:17:21;2.50;;;1.70;;
69789;SDS011;57064;52.046;4.800;2023-06-24T00:19:47;2.92;;;1.60;;
69789;SDS011;57064;52.046;4.800;2023-06-24T00:22:13;5.50;;;2.08;;
69789;SDS011;57064;52.046;4.800;2023-06-24T00:24:39;2.60;;;1.60;;
69789;SDS011;57064;52.046;4.800;2023-06-24T00:27:07;2.90;;;1.70;;
69789;SDS011;57064;52.046;4.800;2023-06-24T00:29:33;3.80;;;1.60;;
69789;SDS011;57064;52.046;4.800;2023-06-24T00:31:59;3.67;;;1.90;;
69789;SDS011;57064;52.046;4.800;2023-06-24T00:34:26;3.58;;;2.25;;
69789;SDS011;57064;52.046;4.800;2023-06-24T00:36:52;4.40;;;2.22;;
69789;SDS011;57064;52.046;4.800;2023-06-24T00:39:18;3.47;;;2.03;;
69789;SDS011;57064;52.046;4.800;2023-06-24T00:41:44;3.85;;;2.28;;
69789;SDS011;57064;52.046;4.800;2023-06-24T00:44:10;5.47;;;2.22;;
69789;SDS011;57064;52.046;4.800;2023-06-24T00:46:36;4.40;;;2.05;;
69789;SDS011;57064;52.046;4.800;2023-06-24T00:49:05;4.43;;;2.10;;
69789;SDS011;57064;52.046;4.800;2023-06-24T00:51:32;4.03;;;2.40;;
69789;SDS011;57064;52.046;4.800;2023-06-24T00:53:59;3.88;;;1.98;;
69789;SDS011;57064;52.046;4.800;2023-06-24T00:56:28;3.92;;;1.83;;
69789;SDS011;57064;52.046;4.800;2023-06-24T00:58:57;4.13;;;1.98;;
69789;SDS011;57064;52.046;4.800;2023-06-24T01:01:26;3.22;;;2.05;;
69789;SDS011;57064;52.046;4.800;2023-06-24T01:06:25;4.82;;;2.80;;
69789;SDS011;57064;52.046;4.800;2023-06-24T01:08:57;6.68;;;3.25;;
69789;SDS011;57064;52.046;4.800;2023-06-24T01:11:28;3.90;;;2.97;;
69789;SDS011;57064;52.046;4.800;2023-06-24T01:13:55;7.03;;;3.55;;
69789;SDS011;57064;52.046;4.800;2023-06-24T01:16:44;8.93;;;5.28;;
69789;SDS011;57064;52.046;4.800;2023-06-24T01:33:25;10.82;;;6.70;;
69789;SDS011;57064;52.046;4.800;2023-06-24T01:36:02;11.75;;;6.85;;
69789;SDS011;57064;52.046;4.800;2023-06-24T01:38:36;10.35;;;6.50;;
69789;SDS011;57064;52.046;4.800;2023-06-24T01:41:13;13.25;;;5.85;;
69789;SDS011;57064;52.046;4.800;2023-06-24T01:43:45;13.00;;;5.90;;
69789;SDS011;57064;52.046;4.800;2023-06-24T01:46:12;8.65;;;5.22;;
69789;SDS011;57064;52.046;4.800;2023-06-24T01:48:41;8.35;;;5.03;;
69789;SDS011;57064;52.046;4.800;2023-06-24T01:51:10;9.02;;;4.47;;
69789;SDS011;57064;52.046;4.800;2023-06-24T01:53:42;9.63;;;5.05;;
69789;SDS011;57064;52.046;4.800;2023-06-24T01:56:14;10.10;;;4.60;;
69789;SDS011;57064;52.046;4.800;2023-06-24T01:58:41;7.72;;;4.65;;
69789;SDS011;57064;52.046;4.800;2023-06-24T02:01:09;10.20;;;5.00;;
69789;SDS011;57064;52.046;4.800;2023-06-24T02:03:37;6.95;;;4.07;;
69789;SDS011;57064;52.046;4.800;2023-06-24T02:06:04;6.40;;;4.28;;
69789;SDS011;57064;52.046;4.800;2023-06-24T02:08:34;8.65;;;4.43;;
69789;SDS011;57064;52.046;4.800;2023-06-24T02:11:03;6.28;;;3.97;;
69789;SDS011;57064;52.046;4.800;2023-06-24T02:13:30;6.25;;;3.83;;
69789;SDS011;57064;52.046;4.800;2023-06-24T02:16:00;6.57;;;3.38;;
69789;SDS011;57064;52.046;4.800;2023-06-24T02:18:31;10.63;;;3.83;;
69789;SDS011;57064;52.046;4.800;2023-06-24T02:20:58;6.80;;;3.83;;
69789;SDS011;57064;52.046;4.800;2023-06-24T02:23:26;9.02;;;3.65;;
69789;SDS011;57064;52.046;4.800;2023-06-24T02:25:53;7.32;;;3.55;;
69789;SDS011;57064;52.046;4.800;2023-06-24T02:28:19;7.70;;;4.32;;
69789;SDS011;57064;52.046;4.800;2023-06-24T02:30:46;8.35;;;4.10;;
69789;SDS011;57064;52.046;4.800;2023-06-24T02:33:14;8.30;;;4.13;;
69789;SDS011;57064;52.046;4.800;2023-06-24T02:35:40;8.07;;;3.83;;
69789;SDS011;57064;52.046;4.800;2023-06-24T02:38:07;9.05;;;5.25;;
69789;SDS011;57064;52.046;4.800;2023-06-24T02:40:33;7.68;;;4.38;;
69789;SDS011;57064;52.046;4.800;2023-06-24T02:42:59;8.52;;;4.90;;
69789;SDS011;57064;52.046;4.800;2023-06-24T02:45:26;9.98;;;5.53;;
69789;SDS011;57064;52.046;4.800;2023-06-24T02:47:52;8.73;;;4.93;;
69789;SDS011;57064;52.046;4.800;2023-06-24T02:50:20;9.95;;;5.22;;
69789;SDS011;57064;52.046;4.800;2023-06-24T02:52:47;9.40;;;4.30;;
69789;SDS011;57064;52.046;4.800;2023-06-24T02:55:14;7.75;;;4.30;;
69789;SDS011;57064;52.046;4.800;2023-06-24T02:57:40;9.88;;;5.03;;
69789;SDS011;57064;52.046;4.800;2023-06-24T03:00:07;7.68;;;4.78;;
69789;SDS011;57064;52.046;4.800;2023-06-24T03:02:37;12.57;;;5.03;;
69789;SDS011;57064;52.046;4.800;2023-06-24T03:05:04;7.75;;;4.43;;
69789;SDS011;57064;52.046;4.800;2023-06-24T03:07:32;8.40;;;5.20;;
69789;SDS011;57064;52.046;4.800;2023-06-24T03:10:04;9.80;;;5.20;;
69789;SDS011;57064;52.046;4.800;2023-06-24T03:12:31;10.45;;;5.60;;
69789;SDS011;57064;52.046;4.800;2023-06-24T03:14:57;10.30;;;5.47;;
69789;SDS011;57064;52.046;4.800;2023-06-24T03:17:24;10.98;;;5.35;;
69789;SDS011;57064;52.046;4.800;2023-06-24T03:19:50;11.85;;;5.97;;
69789;SDS011;57064;52.046;4.800;2023-06-24T03:22:17;11.25;;;5.38;;
69789;SDS011;57064;52.046;4.800;2023-06-24T03:24:43;12.10;;;6.10;;
69789;SDS011;57064;52.046;4.800;2023-06-24T03:27:10;11.13;;;5.05;;
69789;SDS011;57064;52.046;4.800;2023-06-24T03:29:36;8.18;;;5.20;;
69789;SDS011;57064;52.046;4.800;2023-06-24T03:32:02;10.32;;;5.88;;
69789;SDS011;57064;52.046;4.800;2023-06-24T03:34:28;10.20;;;5.45;;
69789;SDS011;57064;52.046;4.800;2023-06-24T03:36:54;9.80;;;5.63;;
69789;SDS011;57064;52.046;4.800;2023-06-24T03:39:21;11.63;;;5.38;;
69789;SDS011;57064;52.046;4.800;2023-06-24T03:41:47;10.65;;;6.35;;
69789;SDS011;57064;52.046;4.800;2023-06-24T03:44:13;10.43;;;5.05;;
69789;SDS011;57064;52.046;4.800;2023-06-24T03:46:40;10.25;;;5.18;;
69789;SDS011;57064;52.046;4.800;2023-06-24T03:49:06;11.65;;;5.32;;
69789;SDS011;57064;52.046;4.800;2023-06-24T03:51:32;10.23;;;6.53;;
69789;SDS011;57064;52.046;4.800;2023-06-24T03:53:58;8.95;;;5.40;;
69789;SDS011;57064;52.046;4.800;2023-06-24T03:56:24;9.50;;;5.25;;
69789;SDS011;57064;52.046;4.800;2023-06-24T03:58:50;9.18;;;5.43;;
69789;SDS011;57064;52.046;4.800;2023-06-24T04:01:17;9.10;;;5.10;;
69789;SDS011;57064;52.046;4.800;2023-06-24T04:03:44;9.50;;;4.90;;
69789;SDS011;57064;52.046;4.800;2023-06-24T04:06:10;8.75;;;5.00;;
69789;SDS011;57064;52.046;4.800;2023-06-24T04:08:36;7.68;;;4.97;;
69789;SDS011;57064;52.046;4.800;2023-06-24T04:11:05;9.20;;;4.93;;
69789;SDS011;57064;52.046;4.800;2023-06-24T04:13:32;8.95;;;4.47;;
69789;SDS011;57064;52.046;4.800;2023-06-24T04:15:58;10.13;;;4.72;;
69789;SDS011;57064;52.046;4.800;2023-06-24T04:18:24;9.77;;;5.38;;
69789;SDS011;57064;52.046;4.800;2023-06-24T04:20:51;9.40;;;5.22;;
69789;SDS011;57064;52.046;4.800;2023-06-24T04:23:17;7.07;;;4.78;;
69789;SDS011;57064;52.046;4.800;2023-06-24T04:25:43;9.45;;;4.30;;
69789;SDS011;57064;52.046;4.800;2023-06-24T04:28:09;8.18;;;5.25;;
69789;SDS011;57064;52.046;4.800;2023-06-24T04:30:35;7.63;;;4.78;;
69789;SDS011;57064;52.046;4.800;2023-06-24T04:33:03;8.68;;;4.95;;
69789;SDS011;57064;52.046;4.800;2023-06-24T04:35:30;7.60;;;4.88;;
69789;SDS011;57064;52.046;4.800;2023-06-24T04:37:56;7.03;;;4.90;;
69789;SDS011;57064;52.046;4.800;2023-06-24T04:40:22;7.65;;;4.88;;
69789;SDS011;57064;52.046;4.800;2023-06-24T04:42:48;8.52;;;5.32;;
69789;SDS011;57064;52.046;4.800;2023-06-24T04:45:14;8.63;;;4.85;;
69789;SDS011;57064;52.046;4.800;2023-06-24T04:47:40;7.13;;;4.38;;
69789;SDS011;57064;52.046;4.800;2023-06-24T04:50:07;7.65;;;4.30;;
69789;SDS011;57064;52.046;4.800;2023-06-24T04:52:36;6.50;;;4.13;;
69789;SDS011;57064;52.046;4.800;2023-06-24T04:55:04;9.63;;;4.78;;
69789;SDS011;57064;52.046;4.800;2023-06-24T04:57:31;7.82;;;4.45;;
69789;SDS011;57064;52.046;4.800;2023-06-24T04:59:57;7.63;;;4.50;;
69789;SDS011;57064;52.046;4.800;2023-06-24T05:02:24;7.80;;;4.65;;
69789;SDS011;57064;52.046;4.800;2023-06-24T05:04:51;9.05;;;4.28;;
69789;SDS011;57064;52.046;4.800;2023-06-24T05:07:17;7.57;;;4.10;;
69789;SDS011;57064;52.046;4.800;2023-06-24T05:09:46;8.15;;;4.80;;
69789;SDS011;57064;52.046;4.800;2023-06-24T05:12:13;7.55;;;5.10;;
69789;SDS011;57064;52.046;4.800;2023-06-24T05:14:39;6.75;;;4.45;;
69789;SDS011;57064;52.046;4.800;2023-06-24T05:17:05;8.60;;;4.70;;
69789;SDS011;57064;52.046;4.800;2023-06-24T05:19:32;6.38;;;4.43;;
69789;SDS011;57064;52.046;4.800;2023-06-24T05:21:58;8.63;;;4.55;;
69789;SDS011;57064;52.046;4.800;2023-06-24T05:24:24;7.72;;;4.88;;
69789;SDS011;57064;52.046;4.800;2023-06-24T05:26:51;8.45;;;4.68;;
69789;SDS011;57064;52.046;4.800;2023-06-24T05:29:17;6.40;;;4.32;;
69789;SDS011;57064;52.046;4.800;2023-06-24T05:31:44;7.55;;;4.63;;
69789;SDS011;57064;52.046;4.800;2023-06-24T05:34:11;8.32;;;4.85;;
69789;SDS011;57064;52.046;4.800;2023-06-24T05:36:37;7.18;;;4.50;;
69789;SDS011;57064;52.046;4.800;2023-06-24T05:39:03;7.43;;;4.50;;
69789;SDS011;57064;52.046;4.800;2023-06-24T05:41:32;6.82;;;4.40;;
69789;SDS011;57064;52.046;4.800;2023-06-24T05:44:08;8.23;;;4.70;;
69789;SDS011;57064;52.046;4.800;2023-06-24T05:46:37;6.93;;;4.60;;
69789;SDS011;57064;52.046;4.800;2023-06-24T05:49:03;6.00;;;4.15;;
69789;SDS011;57064;52.046;4.800;2023-06-24T05:51:29;7.55;;;4.45;;
69789;SDS011;57064;52.046;4.800;2023-06-24T05:53:55;6.32;;;4.47;;
69789;SDS011;57064;52.046;4.800;2023-06-24T05:56:22;6.47;;;4.32;;
69789;SDS011;57064;52.046;4.800;2023-06-24T05:58:48;7.28;;;4.18;;
69789;SDS011;57064;52.046;4.800;2023-06-24T06:01:14;7.90;;;4.05;;
69789;SDS011;57064;52.046;4.800;2023-06-24T06:03:40;6.50;;;4.88;;
69789;SDS011;57064;52.046;4.800;2023-06-24T06:06:07;8.68;;;4.88;;
69789;SDS011;57064;52.046;4.800;2023-06-24T06:08:33;9.25;;;4.85;;
69789;SDS011;57064;52.046;4.800;2023-06-24T06:10:59;11.18;;;4.68;;
69789;SDS011;57064;52.046;4.800;2023-06-24T06:13:29;12.45;;;4.82;;
69789;SDS011;57064;52.046;4.800;2023-06-24T06:15:56;7.00;;;5.05;;
69789;SDS011;57064;52.046;4.800;2023-06-24T06:18:22;10.48;;;5.35;;
69789;SDS011;57064;52.046;4.800;2023-06-24T06:20:48;11.43;;;5.60;;
69789;SDS011;57064;52.046;4.800;2023-06-24T06:23:15;10.88;;;5.68;;
69789;SDS011;57064;52.046;4.800;2023-06-24T06:25:41;8.40;;;4.97;;
69789;SDS011;57064;52.046;4.800;2023-06-24T06:28:08;8.35;;;5.47;;
69789;SDS011;57064;52.046;4.800;2023-06-24T06:30:34;7.88;;;4.80;;
69789;SDS011;57064;52.046;4.800;2023-06-24T06:33:00;7.93;;;5.25;;
69789;SDS011;57064;52.046;4.800;2023-06-24T06:35:26;9.32;;;5.30;;
69789;SDS011;57064;52.046;4.800;2023-06-24T06:37:52;8.10;;;5.05;;
69789;SDS011;57064;52.046;4.800;2023-06-24T06:40:19;8.02;;;5.50;;
69789;SDS011;57064;52.046;4.800;2023-06-24T06:42:46;8.63;;;4.95;;
69789;SDS011;57064;52.046;4.800;2023-06-24T06:45:13;8.52;;;5.10;;
69789;SDS011;57064;52.046;4.800;2023-06-24T06:47:39;9.27;;;5.03;;
69789;SDS011;57064;52.046;4.800;2023-06-24T06:50:05;9.93;;;4.85;;
69789;SDS011;57064;52.046;4.800;2023-06-24T06:52:32;8.90;;;5.20;;
69789;SDS011;57064;52.046;4.800;2023-06-24T06:54:59;9.60;;;4.80;;
69789;SDS011;57064;52.046;4.800;2023-06-24T06:57:25;9.23;;;5.53;;
69789;SDS011;57064;52.046;4.800;2023-06-24T06:59:51;8.60;;;4.88;;
69789;SDS011;57064;52.046;4.800;2023-06-24T07:02:18;7.88;;;5.10;;
69789;SDS011;57064;52.046;4.800;2023-06-24T07:04:44;10.13;;;5.22;;
69789;SDS011;57064;52.046;4.800;2023-06-24T07:07:12;8.25;;;5.18;;
69789;SDS011;57064;52.046;4.800;2023-06-24T07:09:38;7.75;;;5.47;;
69789;SDS011;57064;52.046;4.800;2023-06-24T07:12:05;8.07;;;5.65;;
69789;SDS011;57064;52.046;4.800;2023-06-24T07:14:32;9.02;;;4.82;;
69789;SDS011;57064;52.046;4.800;2023-06-24T07:16:58;9.10;;;5.60;;
69789;SDS011;57064;52.046;4.800;2023-06-24T07:19:24;8.50;;;5.25;;
69789;SDS011;57064;52.046;4.800;2023-06-24T07:21:51;9.02;;;5.03;;
69789;SDS011;57064;52.046;4.800;2023-06-24T07:24:17;9.27;;;5.60;;
69789;SDS011;57064;52.046;4.800;2023-06-24T07:26:43;9.50;;;5.50;;
69789;SDS011;57064;52.046;4.800;2023-06-24T07:29:09;8.77;;;5.20;;
69789;SDS011;57064;52.046;4.800;2023-06-24T07:31:36;11.65;;;5.38;;
69789;SDS011;57064;52.046;4.800;2023-06-24T07:34:02;10.35;;;5.88;;
69789;SDS011;57064;52.046;4.800;2023-06-24T07:36:29;9.95;;;6.43;;
69789;SDS011;57064;52.046;4.800;2023-06-24T07:38:55;11.20;;;5.85;;
69789;SDS011;57064;52.046;4.800;2023-06-24T07:41:21;8.98;;;5.80;;
69789;SDS011;57064;52.046;4.800;2023-06-24T07:43:47;13.65;;;6.25;;
69789;SDS011;57064;52.046;4.800;2023-06-24T07:46:13;13.25;;;6.07;;
69789;SDS011;57064;52.046;4.800;2023-06-24T07:48:39;10.38;;;5.82;;
69789;SDS011;57064;52.046;4.800;2023-06-24T07:51:05;10.10;;;5.70;;
69789;SDS011;57064;52.046;4.800;2023-06-24T07:53:31;13.15;;;5.68;;
69789;SDS011;57064;52.046;4.800;2023-06-24T07:55:58;9.15;;;5.63;;
69789;SDS011;57064;52.046;4.800;2023-06-24T07:58:24;14.00;;;6.47;;
69789;SDS011;57064;52.046;4.800;2023-06-24T08:00:50;9.52;;;5.72;;
69789;SDS011;57064;52.046;4.800;2023-06-24T08:03:17;10.25;;;5.45;;
69789;SDS011;57064;52.046;4.800;2023-06-24T08:05:43;11.50;;;5.40;;
69789;SDS011;57064;52.046;4.800;2023-06-24T08:08:09;8.80;;;5.65;;
69789;SDS011;57064;52.046;4.800;2023-06-24T08:10:35;9.23;;;5.20;;
69789;SDS011;57064;52.046;4.800;2023-06-24T08:13:01;8.80;;;5.45;;
69789;SDS011;57064;52.046;4.800;2023-06-24T08:15:27;9.57;;;5.63;;
69789;SDS011;57064;52.046;4.800;2023-06-24T08:17:54;9.70;;;5.57;;
69789;SDS011;57064;52.046;4.800;2023-06-24T08:20:20;9.25;;;5.75;;
69789;SDS011;57064;52.046;4.800;2023-06-24T08:22:47;9.85;;;5.65;;
69789;SDS011;57064;52.046;4.800;2023-06-24T08:25:13;10.23;;;5.20;;
69789;SDS011;57064;52.046;4.800;2023-06-24T08:27:39;8.98;;;5.88;;
69789;SDS011;57064;52.046;4.800;2023-06-24T08:30:06;8.63;;;5.90;;
69789;SDS011;57064;52.046;4.800;2023-06-24T08:32:33;11.27;;;6.45;;
69789;SDS011;57064;52.046;4.800;2023-06-24T08:34:59;10.25;;;6.15;;
69789;SDS011;57064;52.046;4.800;2023-06-24T08:37:25;10.55;;;6.35;;
69789;SDS011;57064;52.046;4.800;2023-06-24T08:39:51;8.00;;;5.63;;
69789;SDS011;57064;52.046;4.800;2023-06-24T08:42:17;11.70;;;6.68;;
69789;SDS011;57064;52.046;4.800;2023-06-24T08:44:43;9.25;;;6.07;;
69789;SDS011;57064;52.046;4.800;2023-06-24T08:47:09;11.18;;;6.63;;
69789;SDS011;57064;52.046;4.800;2023-06-24T08:49:38;13.05;;;6.60;;
69789;SDS011;57064;52.046;4.800;2023-06-24T08:52:18;11.73;;;7.10;;
69789;SDS011;57064;52.046;4.800;2023-06-24T08:54:46;10.50;;;7.22;;
69789;SDS011;57064;52.046;4.800;2023-06-24T08:57:15;13.45;;;6.68;;
69789;SDS011;57064;52.046;4.800;2023-06-24T08:59:43;13.38;;;6.32;;
69789;SDS011;57064;52.046;4.800;2023-06-24T09:02:09;9.40;;;6.40;;
69789;SDS011;57064;52.046;4.800;2023-06-24T09:04:36;11.20;;;6.50;;
69789;SDS011;57064;52.046;4.800;2023-06-24T09:07:02;10.88;;;6.88;;
69789;SDS011;57064;52.046;4.800;2023-06-24T09:09:28;14.48;;;6.82;;
69789;SDS011;57064;52.046;4.800;2023-06-24T09:11:58;12.93;;;7.07;;
69789;SDS011;57064;52.046;4.800;2023-06-24T09:14:26;12.18;;;6.70;;
69789;SDS011;57064;52.046;4.800;2023-06-24T09:16:54;9.90;;;6.43;;
69789;SDS011;57064;52.046;4.800;2023-06-24T09:19:27;10.48;;;6.28;;
69789;SDS011;57064;52.046;4.800;2023-06-24T09:22:01;12.43;;;6.60;;
69789;SDS011;57064;52.046;4.800;2023-06-24T09:24:29;12.70;;;6.28;;
69789;SDS011;57064;52.046;4.800;2023-06-24T09:26:56;11.93;;;6.80;;
69789;SDS011;57064;52.046;4.800;2023-06-24T09:29:25;11.85;;;7.63;;
69789;SDS011;57064;52.046;4.800;2023-06-24T09:32:04;10.68;;;6.75;;
69789;SDS011;57064;52.046;4.800;2023-06-24T09:34:31;9.65;;;5.60;;
69789;SDS011;57064;52.046;4.800;2023-06-24T09:36:58;12.13;;;6.68;;
69789;SDS011;57064;52.046;4.800;2023-06-24T09:39:25;10.70;;;6.45;;
69789;SDS011;57064;52.046;4.800;2023-06-24T09:41:54;13.15;;;7.68;;
69789;SDS011;57064;52.046;4.800;2023-06-24T09:44:21;11.57;;;6.70;;
69789;SDS011;57064;52.046;4.800;2023-06-24T09:46:47;13.27;;;7.00;;
69789;SDS011;57064;52.046;4.800;2023-06-24T09:49:13;11.98;;;6.90;;
69789;SDS011;57064;52.046;4.800;2023-06-24T09:51:42;11.07;;;6.45;;
69789;SDS011;57064;52.046;4.800;2023-06-24T09:54:10;12.27;;;7.50;;
69789;SDS011;57064;52.046;4.800;2023-06-24T09:56:39;9.85;;;6.45;;
69789;SDS011;57064;52.046;4.800;2023-06-24T09:59:10;10.98;;;7.45;;
69789;SDS011;57064;52.046;4.800;2023-06-24T10:01:39;10.55;;;7.10;;
69789;SDS011;57064;52.046;4.800;2023-06-24T10:04:08;10.93;;;7.40;;
69789;SDS011;57064;52.046;4.800;2023-06-24T10:09:06;14.27;;;7.70;;
69789;SDS011;57064;52.046;4.800;2023-06-24T10:11:33;12.65;;;7.03;;
69789;SDS011;57064;52.046;4.800;2023-06-24T10:13:59;13.88;;;6.55;;
69789;SDS011;57064;52.046;4.800;2023-06-24T10:16:25;11.88;;;6.95;;
69789;SDS011;57064;52.046;4.800;2023-06-24T10:18:52;11.15;;;7.00;;
69789;SDS011;57064;52.046;4.800;2023-06-24T10:21:24;12.63;;;7.07;;
69789;SDS011;57064;52.046;4.800;2023-06-24T10:24:35;11.88;;;6.80;;
69789;SDS011;57064;52.046;4.800;2023-06-24T10:27:16;13.32;;;7.28;;
69789;SDS011;57064;52.046;4.800;2023-06-24T10:29:46;12.95;;;7.13;;
69789;SDS011;57064;52.046;4.800;2023-06-24T10:32:19;13.48;;;7.32;;
69789;SDS011;57064;52.046;4.800;2023-06-24T10:34:47;13.23;;;7.68;;
69789;SDS011;57064;52.046;4.800;2023-06-24T10:37:20;12.70;;;7.32;;
69789;SDS011;57064;52.046;4.800;2023-06-24T10:39:53;9.93;;;6.10;;
69789;SDS011;57064;52.046;4.800;2023-06-24T10:44:54;10.30;;;5.85;;
69789;SDS011;57064;52.046;4.800;2023-06-24T10:47:24;12.00;;;6.00;;
69789;SDS011;57064;52.046;4.800;2023-06-24T10:49:52;11.27;;;6.32;;
69789;SDS011;57064;52.046;4.800;2023-06-24T10:52:18;9.68;;;6.03;;
69789;SDS011;57064;52.046;4.800;2023-06-24T10:54:49;11.07;;;6.22;;
69789;SDS011;57064;52.046;4.800;2023-06-24T10:57:20;12.88;;;6.75;;
69789;SDS011;57064;52.046;4.800;2023-06-24T10:59:50;11.93;;;6.57;;
69789;SDS011;57064;52.046;4.800;2023-06-24T11:02:18;11.02;;;6.72;;
69789;SDS011;57064;52.046;4.800;2023-06-24T11:04:47;10.10;;;6.88;;
69789;SDS011;57064;52.046;4.800;2023-06-24T11:07:14;10.52;;;6.50;;
69789;SDS011;57064;52.046;4.800;2023-06-24T11:09:58;12.23;;;6.93;;
69789;SDS011;57064;52.046;4.800;2023-06-24T11:12:26;10.60;;;6.43;;
69789;SDS011;57064;52.046;4.800;2023-06-24T11:14:58;11.82;;;7.03;;
69789;SDS011;57064;52.046;4.800;2023-06-24T11:17:26;9.50;;;6.72;;
69789;SDS011;57064;52.046;4.800;2023-06-24T11:19:53;9.65;;;6.22;;
69789;SDS011;57064;52.046;4.800;2023-06-24T11:22:19;11.95;;;6.97;;
69789;SDS011;57064;52.046;4.800;2023-06-24T11:24:46;10.40;;;6.57;;
69789;SDS011;57064;52.046;4.800;2023-06-24T11:27:12;10.23;;;6.25;;
69789;SDS011;57064;52.046;4.800;2023-06-24T11:29:38;11.00;;;5.85;;
69789;SDS011;57064;52.046;4.800;2023-06-24T11:32:08;12.07;;;6.18;;
69789;SDS011;57064;52.046;4.800;2023-06-24T11:34:37;10.18;;;6.60;;
69789;SDS011;57064;52.046;4.800;2023-06-24T11:37:14;8.70;;;5.97;;
69789;SDS011;57064;52.046;4.800;2023-06-24T11:39:43;12.82;;;5.93;;
69789;SDS011;57064;52.046;4.800;2023-06-24T11:42:09;9.60;;;6.03;;
69789;SDS011;57064;52.046;4.800;2023-06-24T11:44:40;10.55;;;6.40;;
69789;SDS011;57064;52.046;4.800;2023-06-24T11:47:10;12.88;;;7.47;;
69789;SDS011;57064;52.046;4.800;2023-06-24T11:49:54;14.07;;;7.10;;
69789;SDS011;57064;52.046;4.800;2023-06-24T11:55:16;10.30;;;7.40;;
69789;SDS011;57064;52.046;4.800;2023-06-24T11:57:49;11.38;;;6.60;;
69789;SDS011;57064;52.046;4.800;2023-06-24T12:00:21;10.18;;;6.35;;
69789;SDS011;57064;52.046;4.800;2023-06-24T12:03:22;8.75;;;5.68;;
69789;SDS011;57064;52.046;4.800;2023-06-24T12:05:40;9.93;;;5.97;;
69789;SDS011;57064;52.046;4.800;2023-06-24T12:08:10;12.60;;;7.38;;
69789;SDS011;57064;52.046;4.800;2023-06-24T12:10:38;10.32;;;6.25;;
69789;SDS011;57064;52.046;4.800;2023-06-24T12:13:05;9.13;;;5.80;;
69789;SDS011;57064;52.046;4.800;2023-06-24T12:15:33;10.25;;;6.70;;
69789;SDS011;57064;52.046;4.800;2023-06-24T12:17:59;10.98;;;7.05;;
69789;SDS011;57064;52.046;4.800;2023-06-24T12:20:27;9.85;;;6.20;;
69789;SDS011;57064;52.046;4.800;2023-06-24T12:22:54;8.55;;;5.95;;
69789;SDS011;57064;52.046;4.800;2023-06-24T12:25:20;11.27;;;6.25;;
69789;SDS011;57064;52.046;4.800;2023-06-24T12:27:46;11.98;;;6.63;;
69789;SDS011;57064;52.046;4.800;2023-06-24T12:30:13;8.68;;;5.03;;
69789;SDS011;57064;52.046;4.800;2023-06-24T12:32:39;11.75;;;5.95;;
69789;SDS011;57064;52.046;4.800;2023-06-24T12:35:05;8.80;;;5.13;;
69789;SDS011;57064;52.046;4.800;2023-06-24T12:37:34;7.75;;;4.78;;
69789;SDS011;57064;52.046;4.800;2023-06-24T12:40:00;6.90;;;4.63;;
69789;SDS011;57064;52.046;4.800;2023-06-24T12:42:27;7.68;;;5.20;;
69789;SDS011;57064;52.046;4.800;2023-06-24T12:44:54;7.90;;;5.15;;
69789;SDS011;57064;52.046;4.800;2023-06-24T12:47:20;7.88;;;4.95;;
69789;SDS011;57064;52.046;4.800;2023-06-24T12:49:47;6.60;;;5.15;;
69789;SDS011;57064;52.046;4.800;2023-06-24T12:52:14;7.65;;;5.32;;
69789;SDS011;57064;52.046;4.800;2023-06-24T12:54:40;7.07;;;4.80;;
69789;SDS011;57064;52.046;4.800;2023-06-24T12:57:06;8.13;;;4.93;;
69789;SDS011;57064;52.046;4.800;2023-06-24T12:59:32;8.05;;;5.47;;
69789;SDS011;57064;52.046;4.800;2023-06-24T13:01:58;9.45;;;5.07;;
69789;SDS011;57064;52.046;4.800;2023-06-24T13:04:25;8.88;;;5.55;;
69789;SDS011;57064;52.046;4.800;2023-06-24T13:06:52;10.55;;;6.35;;
69789;SDS011;57064;52.046;4.800;2023-06-24T13:09:18;9.40;;;5.88;;
69789;SDS011;57064;52.046;4.800;2023-06-24T13:11:45;9.93;;;5.75;;
69789;SDS011;57064;52.046;4.800;2023-06-24T13:14:11;11.65;;;5.95;;
69789;SDS011;57064;52.046;4.800;2023-06-24T13:16:38;8.90;;;5.78;;
69789;SDS011;57064;52.046;4.800;2023-06-24T13:19:04;9.43;;;5.82;;
69789;SDS011;57064;52.046;4.800;2023-06-24T13:21:31;11.77;;;6.75;;
69789;SDS011;57064;52.046;4.800;2023-06-24T13:23:57;10.00;;;7.10;;
69789;SDS011;57064;52.046;4.800;2023-06-24T13:26:23;13.05;;;7.55;;
69789;SDS011;57064;52.046;4.800;2023-06-24T13:28:49;13.35;;;7.68;;
69789;SDS011;57064;52.046;4.800;2023-06-24T13:31:15;11.45;;;7.63;;
69789;SDS011;57064;52.046;4.800;2023-06-24T13:33:41;9.63;;;6.07;;
69789;SDS011;57064;52.046;4.800;2023-06-24T13:36:08;9.48;;;5.57;;
69789;SDS011;57064;52.046;4.800;2023-06-24T13:38:53;10.05;;;5.95;;
69789;SDS011;57064;52.046;4.800;2023-06-24T13:41:19;8.02;;;4.93;;
69789;SDS011;57064;52.046;4.800;2023-06-24T13:43:45;9.02;;;5.13;;
69789;SDS011;57064;52.046;4.800;2023-06-24T13:46:11;10.38;;;5.15;;
69789;SDS011;57064;52.046;4.800;2023-06-24T13:48:37;9.07;;;5.43;;
69789;SDS011;57064;52.046;4.800;2023-06-24T13:51:03;7.07;;;5.40;;
69789;SDS011;57064;52.046;4.800;2023-06-24T13:53:30;7.38;;;5.13;;
69789;SDS011;57064;52.046;4.800;2023-06-24T13:55:56;7.28;;;4.53;;
69789;SDS011;57064;52.046;4.800;2023-06-24T13:58:23;8.82;;;4.50;;
69789;SDS011;57064;52.046;4.800;2023-06-24T14:00:49;10.13;;;5.65;;
69789;SDS011;57064;52.046;4.800;2023-06-24T14:03:15;8.25;;;5.05;;
69789;SDS011;57064;52.046;4.800;2023-06-24T14:05:41;7.88;;;5.20;;
69789;SDS011;57064;52.046;4.800;2023-06-24T14:08:07;11.20;;;5.60;;
69789;SDS011;57064;52.046;4.800;2023-06-24T14:10:33;8.55;;;5.07;;
69789;SDS011;57064;52.046;4.800;2023-06-24T14:12:59;9.00;;;5.68;;
69789;SDS011;57064;52.046;4.800;2023-06-24T14:15:25;9.35;;;5.75;;
69789;SDS011;57064;52.046;4.800;2023-06-24T14:17:51;10.35;;;6.18;;
69789;SDS011;57064;52.046;4.800;2023-06-24T14:20:17;9.95;;;5.47;;
69789;SDS011;57064;52.046;4.800;2023-06-24T14:22:44;12.18;;;6.70;;
69789;SDS011;57064;52.046;4.800;2023-06-24T14:25:10;8.27;;;4.57;;
69789;SDS011;57064;52.046;4.800;2023-06-24T14:27:36;11.10;;;7.88;;
69789;SDS011;57064;52.046;4.800;2023-06-24T14:30:03;13.10;;;7.15;;
69789;SDS011;57064;52.046;4.800;2023-06-24T14:32:30;15.65;;;9.68;;
69789;SDS011;57064;52.046;4.800;2023-06-24T14:34:56;18.05;;;9.70;;
69789;SDS011;57064;52.046;4.800;2023-06-24T14:37:22;13.10;;;8.68;;
69789;SDS011;57064;52.046;4.800;2023-06-24T14:39:48;13.63;;;8.68;;
69789;SDS011;57064;52.046;4.800;2023-06-24T14:42:14;14.55;;;10.25;;
69789;SDS011;57064;52.046;4.800;2023-06-24T14:44:40;14.70;;;9.65;;
69789;SDS011;57064;52.046;4.800;2023-06-24T14:47:08;15.45;;;10.00;;
69789;SDS011;57064;52.046;4.800;2023-06-24T14:49:34;18.42;;;10.65;;
69789;SDS011;57064;52.046;4.800;2023-06-24T14:52:00;16.23;;;10.15;;
69789;SDS011;57064;52.046;4.800;2023-06-24T14:54:27;16.98;;;10.55;;
69789;SDS011;57064;52.046;4.800;2023-06-24T14:56:53;17.08;;;9.23;;
69789;SDS011;57064;52.046;4.800;2023-06-24T14:59:19;17.88;;;9.02;;
69789;SDS011;57064;52.046;4.800;2023-06-24T15:01:45;17.23;;;10.73;;
69789;SDS011;57064;52.046;4.800;2023-06-24T15:04:11;19.52;;;11.55;;
69789;SDS011;57064;52.046;4.800;2023-06-24T15:06:37;13.52;;;10.00;;